Time;durP1;ratioP1;P1;durP2;ratioP2;P2;SDS_P1;SDS_P2;PMS_P1;PMS_P2;Temp;Humidity;BMP_temperature;BMP_pressure;BME280_temperature;BME280_humidity;BME280_pressure;Samples;Min_cycle;Max_cycle;Signal;HPM_P1;HPM_P2
2022/04/05 00:00:53;;;;;;;6.63;2.92;;;;;;;;;;5084347;28;20031;-74
2022/04/05 00:03:19;;;;;;;2.33;1.85;;;;;;;;;;5077397;28;20416;-73
2022/04/05 00:05:45;;;;;;;3.90;2.53;;;;;;;;;;5089220;28;20536;-74
2022/04/05 00:08:12;;;;;;;9.93;4.38;;;;;;;;;;5083852;28;20035;-75
2022/04/05 00:10:38;;;;;;;1.73;1.02;;;;;;;;;;5081748;28;20389;-74
2022/04/05 00:13:08;;;;;;;4.57;1.95;;;;;;;;;;5089125;28;20110;-73
2022/04/05 00:15:34;;;;;;;6.20;3.63;;;;;;;;;;5076040;28;20035;-73
2022/04/05 00:18:00;;;;;;;4.60;2.60;;;;;;;;;;5080552;28;20044;-74
2022/04/05 00:20:29;;;;;;;4.95;2.95;;;;;;;;;;5081288;28;20036;-74
2022/04/05 00:22:55;;;;;;;2.25;1.75;;;;;;;;;;5082136;28;20021;-74
2022/04/05 00:25:21;;;;;;;2.08;1.88;;;;;;;;;;5088667;28;20396;-74
2022/04/05 00:27:48;;;;;;;4.30;1.58;;;;;;;;;;5077368;28;20032;-74
2022/04/05 00:30:15;;;;;;;1.67;1.48;;;;;;;;;;5083988;28;20446;-73
2022/04/05 00:32:41;;;;;;;7.22;1.95;;;;;;;;;;5082343;28;20297;-74
2022/04/05 00:35:08;;;;;;;3.42;1.98;;;;;;;;;;5084080;28;20393;-73
2022/04/05 00:37:34;;;;;;;5.97;3.75;;;;;;;;;;5079809;28;20099;-73
2022/04/05 00:40:00;;;;;;;2.28;1.67;;;;;;;;;;5080571;28;20071;-74
2022/04/05 00:42:26;;;;;;;3.47;1.92;;;;;;;;;;5092253;28;20028;-73
2022/04/05 00:44:52;;;;;;;6.25;3.58;;;;;;;;;;5084957;28;20029;-74
2022/04/05 00:47:19;;;;;;;5.18;2.55;;;;;;;;;;5090757;28;20144;-74
2022/04/05 00:49:47;;;;;;;3.83;2.40;;;;;;;;;;5088617;28;20028;-74
2022/04/05 00:52:14;;;;;;;2.40;1.48;;;;;;;;;;5092778;28;20056;-74
2022/04/05 00:54:41;;;;;;;5.35;2.92;;;;;;;;;;5087093;28;20025;-73
2022/04/05 00:57:12;;;;;;;1.42;1.02;;;;;;;;;;5085530;28;20024;-74
2022/04/05 00:59:42;;;;;;;3.80;2.38;;;;;;;;;;5075771;28;20111;-73
2022/04/05 01:02:12;;;;;;;3.15;2.50;;;;;;;;;;5081637;28;20026;-73
2022/04/05 01:04:40;;;;;;;3.92;1.95;;;;;;;;;;5079132;28;20508;-74
2022/04/05 01:07:08;;;;;;;4.13;2.03;;;;;;;;;;5082477;28;20072;-74
2022/04/05 01:09:35;;;;;;;2.67;1.23;;;;;;;;;;5078431;28;20020;-74
2022/04/05 01:12:01;;;;;;;2.80;1.65;;;;;;;;;;5081174;28;20169;-73
2022/04/05 01:14:27;;;;;;;6.45;3.60;;;;;;;;;;5087699;28;20035;-73
2022/04/05 01:16:54;;;;;;;5.97;3.58;;;;;;;;;;5084174;28;20021;-74
2022/04/05 01:19:20;;;;;;;6.57;3.53;;;;;;;;;;5087675;28;20028;-74
2022/04/05 01:21:46;;;;;;;7.03;3.53;;;;;;;;;;5102127;28;20493;-74
2022/04/05 01:24:12;;;;;;;4.40;3.33;;;;;;;;;;5091885;28;20035;-74
2022/04/05 01:26:41;;;;;;;7.18;4.25;;;;;;;;;;5082570;28;20046;-74
2022/04/05 01:29:07;;;;;;;9.32;3.15;;;;;;;;;;5089157;28;20063;-74
2022/04/05 01:31:41;;;;;;;2.13;1.13;;;;;;;;;;5082607;28;20020;-74
2022/04/05 01:34:07;;;;;;;4.70;2.85;;;;;;;;;;5077276;28;20028;-74
2022/04/05 01:36:34;;;;;;;6.18;3.30;;;;;;;;;;5083034;28;20031;-74
2022/04/05 01:39:00;;;;;;;1.48;1.10;;;;;;;;;;5081850;28;20078;-74
2022/04/05 01:41:26;;;;;;;5.68;3.55;;;;;;;;;;5074290;28;20032;-74
2022/04/05 01:43:52;;;;;;;6.35;4.10;;;;;;;;;;5083706;28;20292;-73
2022/04/05 01:46:40;;;;;;;4.57;3.08;;;;;;;;;;5075119;28;20028;-73
2022/04/05 01:49:16;;;;;;;2.85;2.28;;;;;;;;;;5074345;28;20485;-74
2022/04/05 01:51:50;;;;;;;3.78;2.60;;;;;;;;;;5078482;28;20056;-73
2022/04/05 01:54:17;;;;;;;7.82;4.10;;;;;;;;;;5083744;28;20058;-73
2022/04/05 01:56:47;;;;;;;8.55;2.78;;;;;;;;;;5079028;28;20028;-74
2022/04/05 01:59:13;;;;;;;;;;;;;;;;;;5077720;28;20040;-74
2022/04/05 02:01:40;;;;;;;6.40;2.63;;;;;;;;;;5077327;28;20450;-74
2022/04/05 02:04:06;;;;;;;6.88;3.92;;;;;;;;;;5083794;28;20103;-74
2022/04/05 02:06:32;;;;;;;4.05;2.10;;;;;;;;;;5084664;28;20051;-75
2022/04/05 02:08:58;;;;;;;2.05;1.58;;;;;;;;;;5085217;28;20020;-73
2022/04/05 02:11:24;;;;;;;1.65;1.30;;;;;;;;;;5076815;28;20028;-74
2022/04/05 02:13:50;;;;;;;4.95;2.78;;;;;;;;;;5077019;28;20092;-74
2022/04/05 02:16:16;;;;;;;2.75;1.27;;;;;;;;;;5073285;28;20090;-74
2022/04/05 02:18:42;;;;;;;3.90;2.15;;;;;;;;;;5080274;28;20481;-74
2022/04/05 02:21:08;;;;;;;4.43;2.95;;;;;;;;;;5088432;28;20032;-74
2022/04/05 02:23:34;;;;;;;6.75;3.50;;;;;;;;;;5085738;28;20032;-74
2022/04/05 02:26:01;;;;;;;5.20;1.88;;;;;;;;;;5082699;28;20145;-74
2022/04/05 02:28:27;;;;;;;6.93;3.30;;;;;;;;;;5080603;28;20028;-74
2022/04/05 02:30:53;;;;;;;5.43;1.95;;;;;;;;;;5075910;28;20100;-74
2022/04/05 02:33:20;;;;;;;5.85;3.28;;;;;;;;;;5075514;28;20425;-74
2022/04/05 04:27:48;;;;;;;11.23;5.53;;;;;;;;;;5116134;27;20040;-70
2022/04/05 04:30:14;;;;;;;8.82;4.80;;;;;;;;;;5112051;28;20031;-70
2022/04/05 04:32:40;;;;;;;6.40;4.13;;;;;;;;;;5112217;28;20464;-70
2022/04/05 04:35:07;;;;;;;8.32;4.10;;;;;;;;;;5113356;28;20464;-70
2022/04/05 04:37:33;;;;;;;6.45;3.78;;;;;;;;;;5111846;28;20099;-70
2022/04/05 04:39:59;;;;;;;3.88;2.55;;;;;;;;;;5113158;28;20023;-70
2022/04/05 04:42:25;;;;;;;5.63;3.22;;;;;;;;;;5113429;28;20045;-70
2022/04/05 04:44:58;;;;;;;6.85;4.05;;;;;;;;;;5113533;28;20023;-70
2022/04/05 04:47:32;;;;;;;3.47;2.08;;;;;;;;;;5113604;28;20031;-70
2022/04/05 04:49:58;;;;;;;6.03;2.28;;;;;;;;;;5112761;28;20118;-70
2022/04/05 04:52:25;;;;;;;15.80;4.85;;;;;;;;;;5093051;28;20047;-70
2022/04/05 04:54:51;;;;;;;5.72;3.08;;;;;;;;;;5093603;28;20030;-71
2022/04/05 04:57:17;;;;;;;10.60;5.15;;;;;;;;;;5112086;28;20012;-70
2022/04/05 04:59:43;;;;;;;7.20;4.88;;;;;;;;;;5113051;28;20024;-70
2022/04/05 05:02:09;;;;;;;5.43;3.47;;;;;;;;;;5111762;28;20367;-70
2022/04/05 05:04:35;;;;;;;4.10;1.95;;;;;;;;;;5093101;28;20072;-70
2022/04/05 05:07:01;;;;;;;6.47;4.47;;;;;;;;;;5111603;28;20080;-71
2022/04/05 05:09:28;;;;;;;6.32;3.03;;;;;;;;;;5094093;28;20479;-70
2022/04/05 05:11:54;;;;;;;4.22;2.85;;;;;;;;;;5111420;28;20044;-70
2022/04/05 05:14:20;;;;;;;4.60;2.78;;;;;;;;;;5112868;28;20031;-70
2022/04/05 05:16:46;;;;;;;7.65;3.17;;;;;;;;;;5113339;28;20050;-70
2022/04/05 05:19:12;;;;;;;1.45;1.35;;;;;;;;;;5112624;28;20027;-70
2022/04/05 05:21:38;;;;;;;8.57;2.55;;;;;;;;;;5111480;28;20443;-71
2022/04/05 05:24:05;;;;;;;7.65;4.63;;;;;;;;;;5111082;28;20032;-69
2022/04/05 05:26:30;;;;;;;8.63;4.65;;;;;;;;;;5111871;28;20039;-69
2022/04/05 05:28:56;;;;;;;3.20;2.03;;;;;;;;;;5094182;28;20028;-69
2022/04/05 05:31:23;;;;;;;8.82;3.45;;;;;;;;;;5111708;28;20037;-69
2022/04/05 05:33:49;;;;;;;12.90;4.95;;;;;;;;;;5112276;28;20028;-69
2022/04/05 05:36:15;;;;;;;7.95;3.72;;;;;;;;;;5094144;28;20073;-69
2022/04/05 05:38:41;;;;;;;8.85;3.30;;;;;;;;;;5111640;28;20058;-69
2022/04/05 05:41:07;;;;;;;7.90;4.60;;;;;;;;;;5111991;28;20045;-69
2022/04/05 05:43:33;;;;;;;1.50;1.17;;;;;;;;;;5093113;28;20118;-69
2022/04/05 05:46:03;;;;;;;8.60;3.95;;;;;;;;;;5105853;28;20043;-69
2022/04/05 05:48:29;;;;;;;9.50;5.00;;;;;;;;;;5091440;28;20404;-69
2022/04/05 05:50:55;;;;;;;8.48;5.55;;;;;;;;;;5091816;28;20107;-69
2022/04/05 05:53:21;;;;;;;9.80;4.78;;;;;;;;;;5098949;28;20027;-69
2022/04/05 05:55:48;;;;;;;4.28;2.45;;;;;;;;;;5112173;28;20023;-69
2022/04/05 05:58:14;;;;;;;7.15;3.33;;;;;;;;;;5093197;28;20026;-69
2022/04/05 06:00:40;;;;;;;9.65;4.95;;;;;;;;;;5111735;28;20027;-69
2022/04/05 06:03:06;;;;;;;11.70;5.25;;;;;;;;;;5111030;28;20038;-69
2022/04/05 06:05:32;;;;;;;8.85;4.95;;;;;;;;;;5110515;28;20081;-69
2022/04/05 06:07:59;;;;;;;9.98;5.30;;;;;;;;;;5110450;28;20357;-70
2022/04/05 06:10:25;;;;;;;7.38;4.90;;;;;;;;;;5111249;28;20023;-70
2022/04/05 06:12:52;;;;;;;9.82;5.78;;;;;;;;;;5110800;28;20031;-69
2022/04/05 06:15:18;;;;;;;9.40;5.32;;;;;;;;;;5111913;28;20019;-69
2022/04/05 06:17:45;;;;;;;8.68;4.70;;;;;;;;;;5111002;28;20507;-69
2022/04/05 06:20:13;;;;;;;12.25;5.70;;;;;;;;;;5111170;28;20549;-69
2022/04/05 06:22:42;;;;;;;7.55;3.83;;;;;;;;;;5109956;28;20122;-69
2022/04/05 06:25:09;;;;;;;10.35;3.78;;;;;;;;;;5111442;28;20063;-69
2022/04/05 06:27:36;;;;;;;11.00;4.43;;;;;;;;;;5110911;28;20046;-69
2022/04/05 06:30:02;;;;;;;8.07;4.75;;;;;;;;;;5110576;28;20027;-70
2022/04/05 06:32:28;;;;;;;5.68;3.10;;;;;;;;;;5110361;28;20500;-69
2022/04/05 06:34:54;;;;;;;8.85;2.92;;;;;;;;;;5092712;28;20070;-70
2022/04/05 06:37:20;;;;;;;10.43;5.18;;;;;;;;;;5111085;28;20050;-70
2022/04/05 06:39:46;;;;;;;9.52;5.60;;;;;;;;;;5109121;28;20024;-69
2022/04/05 06:42:12;;;;;;;2.30;1.77;;;;;;;;;;5110313;28;20024;-69
2022/04/05 06:44:38;;;;;;;7.07;4.40;;;;;;;;;;5110829;28;20062;-69
2022/04/05 06:47:06;;;;;;;6.90;3.55;;;;;;;;;;5110904;28;20059;-69
2022/04/05 06:49:32;;;;;;;7.55;3.30;;;;;;;;;;5092607;28;20087;-69
2022/04/05 06:51:58;;;;;;;9.23;4.82;;;;;;;;;;5109636;28;20102;-70
2022/04/05 06:54:24;;;;;;;9.23;5.30;;;;;;;;;;5079516;28;20032;-69
2022/04/05 06:56:50;;;;;;;6.63;3.42;;;;;;;;;;5090559;28;20039;-70
2022/04/05 06:59:16;;;;;;;5.43;4.15;;;;;;;;;;5090500;28;20381;-69
2022/04/05 07:01:42;;;;;;;3.08;2.10;;;;;;;;;;5090301;28;20052;-69
2022/04/05 07:04:08;;;;;;;8.23;4.45;;;;;;;;;;5091645;28;20106;-69
2022/04/05 07:06:36;;;;;;;1.98;1.70;;;;;;;;;;5093581;28;20044;-69
2022/04/05 07:09:02;;;;;;;5.55;3.83;;;;;;;;;;5102685;28;20503;-69
2022/04/05 07:11:27;;;;;;;11.60;5.50;;;;;;;;;;5114445;28;20392;-69
2022/04/05 07:13:53;;;;;;;3.97;2.13;;;;;;;;;;5113805;28;20038;-70
2022/04/05 07:16:19;;;;;;;6.43;3.30;;;;;;;;;;5114561;28;20118;-69
2022/04/05 07:18:45;;;;;;;8.32;3.67;;;;;;;;;;5096488;28;20465;-69
2022/04/05 07:21:12;;;;;;;8.05;4.60;;;;;;;;;;5114341;28;20080;-70
2022/04/05 07:23:39;;;;;;;7.57;3.13;;;;;;;;;;5095796;28;20638;-69
2022/04/05 07:26:05;;;;;;;8.00;3.85;;;;;;;;;;5114711;28;20028;-69
2022/04/05 07:28:31;;;;;;;8.75;4.70;;;;;;;;;;5096286;28;20476;-69
2022/04/05 07:30:57;;;;;;;8.23;4.60;;;;;;;;;;5114138;28;20037;-69
2022/04/05 07:33:23;;;;;;;1.13;0.98;;;;;;;;;;5095549;28;20477;-70
2022/04/05 07:35:50;;;;;;;7.85;3.90;;;;;;;;;;5114181;28;20024;-69
2022/04/05 07:38:17;;;;;;;14.63;4.70;;;;;;;;;;5114368;28;20016;-70
2022/04/05 07:40:50;;;;;;;7.03;2.83;;;;;;;;;;5113974;28;20027;-69
2022/04/05 07:43:17;;;;;;;5.00;2.75;;;;;;;;;;5095905;28;20024;-69
2022/04/05 07:45:44;;;;;;;7.38;4.22;;;;;;;;;;5113826;28;20475;-69
2022/04/05 07:48:10;;;;;;;5.65;1.98;;;;;;;;;;5094986;28;20126;-69
2022/04/05 07:50:36;;;;;;;4.05;2.03;;;;;;;;;;5113652;28;20035;-69
2022/04/05 07:53:03;;;;;;;7.43;4.13;;;;;;;;;;5113397;28;20028;-69
2022/04/05 07:55:29;;;;;;;5.18;2.92;;;;;;;;;;5113093;28;20024;-69
2022/04/05 07:57:55;;;;;;;12.13;4.90;;;;;;;;;;5113572;28;20418;-69
2022/04/05 08:00:23;;;;;;;7.30;4.03;;;;;;;;;;5114066;28;20072;-69
2022/04/05 08:02:50;;;;;;;2.75;1.52;;;;;;;;;;5113119;28;20051;-70
2022/04/05 08:05:17;;;;;;;8.57;2.70;;;;;;;;;;5113457;28;20422;-69
2022/04/05 08:07:43;;;;;;;2.13;1.33;;;;;;;;;;5112830;28;20165;-69
2022/04/05 08:10:10;;;;;;;11.30;3.78;;;;;;;;;;5112243;28;20023;-70
2022/04/05 08:12:41;;;;;;;2.22;1.02;;;;;;;;;;5113032;28;20031;-69
2022/04/05 08:15:07;;;;;;;7.18;3.60;;;;;;;;;;5095128;28;20058;-70
2022/04/05 08:17:33;;;;;;;2.58;1.73;;;;;;;;;;5112678;28;20062;-70
2022/04/05 08:19:59;;;;;;;6.63;2.97;;;;;;;;;;5095028;28;20034;-69
2022/04/05 08:22:25;;;;;;;7.28;3.40;;;;;;;;;;5093859;28;20034;-69
2022/04/05 08:24:51;;;;;;;3.33;2.00;;;;;;;;;;5093328;28;20020;-70
2022/04/05 08:27:17;;;;;;;7.95;4.00;;;;;;;;;;5113416;28;20036;-69
2022/04/05 08:29:43;;;;;;;1.30;0.80;;;;;;;;;;5094667;28;20035;-69
2022/04/05 08:32:09;;;;;;;2.13;1.83;;;;;;;;;;5094463;28;20024;-69
2022/04/05 08:34:41;;;;;;;7.88;3.55;;;;;;;;;;5113009;28;20468;-69
2022/04/05 08:37:08;;;;;;;2.70;1.02;;;;;;;;;;5113591;28;20100;-70
2022/04/05 08:39:34;;;;;;;7.38;2.88;;;;;;;;;;5111716;28;20062;-69
2022/04/05 08:42:00;;;;;;;3.13;1.73;;;;;;;;;;5112059;28;20522;-69
2022/04/05 08:44:26;;;;;;;10.10;4.65;;;;;;;;;;5112583;28;20066;-69
2022/04/05 08:46:53;;;;;;;13.73;5.07;;;;;;;;;;5112919;28;20107;-69
2022/04/05 08:49:19;;;;;;;6.38;4.28;;;;;;;;;;5112891;28;20026;-69
2022/04/05 08:51:46;;;;;;;11.43;4.78;;;;;;;;;;5094106;28;20484;-69
2022/04/05 08:54:12;;;;;;;4.63;2.75;;;;;;;;;;5112418;28;20647;-70
2022/04/05 08:56:39;;;;;;;6.85;3.72;;;;;;;;;;5112125;28;20024;-70
2022/04/05 08:59:05;;;;;;;6.03;3.35;;;;;;;;;;5077630;28;20036;-69
2022/04/05 09:01:32;;;;;;;5.75;2.58;;;;;;;;;;5112480;28;20499;-70
2022/04/05 09:03:58;;;;;;;8.20;5.20;;;;;;;;;;5094108;28;20115;-70
2022/04/05 09:06:28;;;;;;;1.38;1.25;;;;;;;;;;5093760;28;20035;-70
2022/04/05 09:08:54;;;;;;;;;;;;;;;;;;5112768;28;20081;-70
2022/04/05 09:11:20;;;;;;;12.20;4.82;;;;;;;;;;5092793;28;20364;-70
2022/04/05 09:13:59;;;;;;;6.13;2.80;;;;;;;;;;5112603;28;20104;-69
2022/04/05 09:16:28;;;;;;;9.45;4.72;;;;;;;;;;5112699;28;20069;-69
2022/04/05 09:18:54;;;;;;;10.70;5.20;;;;;;;;;;5112463;28;20035;-70
2022/04/05 09:21:20;;;;;;;10.90;4.55;;;;;;;;;;5112554;28;20057;-69
2022/04/05 09:23:52;;;;;;;9.07;4.05;;;;;;;;;;5112462;28;20108;-69
2022/04/05 09:26:18;;;;;;;6.72;4.30;;;;;;;;;;5111574;28;20050;-69
2022/04/05 09:28:44;;;;;;;7.05;4.32;;;;;;;;;;5110824;28;20488;-69
2022/04/05 09:31:11;;;;;;;9.50;4.80;;;;;;;;;;5111643;28;20036;-69
2022/04/05 09:33:40;;;;;;;7.18;4.60;;;;;;;;;;5093769;28;20019;-70
2022/04/05 09:36:16;;;;;;;7.53;4.43;;;;;;;;;;5111819;28;20106;-70
2022/04/05 09:38:43;;;;;;;2.70;2.20;;;;;;;;;;5112019;28;20031;-69
2022/04/05 09:41:14;;;;;;;14.60;5.20;;;;;;;;;;5111115;28;20033;-69
2022/04/05 09:44:09;;;;;;;9.15;4.78;;;;;;;;;;5111605;28;20537;-69
2022/04/05 09:46:36;;;;;;;7.78;4.18;;;;;;;;;;5008454;28;20054;-69
2022/04/05 09:49:02;;;;;;;7.32;4.50;;;;;;;;;;4992106;28;20407;-70
2022/04/05 09:51:28;;;;;;;6.53;3.45;;;;;;;;;;5007845;28;20044;-69
2022/04/05 09:53:56;;;;;;;10.77;4.55;;;;;;;;;;5008517;28;20435;-70
2022/04/05 09:56:24;;;;;;;9.63;4.20;;;;;;;;;;4991064;28;20578;-70
2022/04/05 09:58:51;;;;;;;4.45;2.67;;;;;;;;;;5008096;28;20064;-70
2022/04/05 10:01:19;;;;;;;0.57;0.57;;;;;;;;;;4991941;28;20026;-70
2022/04/05 10:04:03;;;;;;;12.25;5.38;;;;;;;;;;4992206;28;20053;-69
2022/04/05 10:06:30;;;;;;;3.20;2.40;;;;;;;;;;5007780;28;20552;-69
2022/04/05 10:08:57;;;;;;;6.22;2.72;;;;;;;;;;4991462;28;20494;-70
2022/04/05 10:11:25;;;;;;;9.00;2.72;;;;;;;;;;5006636;28;20092;-69
2022/04/05 10:13:51;;;;;;;9.27;4.32;;;;;;;;;;5008434;28;20026;-70
2022/04/05 10:16:17;;;;;;;11.52;3.88;;;;;;;;;;5008292;28;20041;-69
2022/04/05 10:18:43;;;;;;;4.28;2.78;;;;;;;;;;5008391;28;20030;-70
2022/04/05 10:21:12;;;;;;;6.63;3.97;;;;;;;;;;5007832;28;20448;-69
2022/04/05 10:23:42;;;;;;;2.28;0.68;;;;;;;;;;5086161;28;20584;-69
2022/04/05 10:26:09;;;;;;;7.32;3.70;;;;;;;;;;5110156;28;20051;-69
2022/04/05 10:28:37;;;;;;;6.55;3.75;;;;;;;;;;5093177;28;20031;-69
2022/04/05 10:31:09;;;;;;;6.88;3.42;;;;;;;;;;5110675;28;20039;-69
2022/04/05 10:33:50;;;;;;;1.92;1.33;;;;;;;;;;5110910;28;20039;-69
2022/04/05 10:36:21;;;;;;;5.97;3.60;;;;;;;;;;5110484;28;20031;-69
2022/04/05 10:39:07;;;;;;;4.03;1.98;;;;;;;;;;5111072;28;20106;-69
2022/04/05 10:41:33;;;;;;;4.28;1.90;;;;;;;;;;5108742;28;20481;-69
2022/04/05 10:44:18;;;;;;;4.10;1.88;;;;;;;;;;5110752;28;20020;-69
2022/04/05 10:46:51;;;;;;;8.18;2.92;;;;;;;;;;5092246;28;20039;-69
2022/04/05 10:49:33;;;;;;;1.95;1.55;;;;;;;;;;5111237;28;20027;-69
2022/04/05 10:52:06;;;;;;;4.95;2.47;;;;;;;;;;5110365;28;20047;-70
2022/04/05 10:54:36;;;;;;;4.53;2.85;;;;;;;;;;5092603;28;20023;-69
2022/04/05 10:57:27;;;;;;;8.88;2.28;;;;;;;;;;5109843;28;20023;-69
2022/04/05 11:00:01;;;;;;;7.95;3.83;;;;;;;;;;5110529;28;20027;-69
2022/04/05 11:08:26;;;;;;;8.60;4.22;;;;;;;;;;5113487;28;20396;-69
2022/04/05 11:10:53;;;;;;;16.80;3.57;;;;;;;;;;5110821;28;20020;-69
2022/04/05 11:13:19;;;;;;;6.15;2.78;;;;;;;;;;5110409;28;20024;-69
2022/04/05 11:15:50;;;;;;;6.72;3.70;;;;;;;;;;5091586;28;20499;-70
2022/04/05 11:18:20;;;;;;;10.65;4.57;;;;;;;;;;5093034;28;20027;-69
2022/04/05 11:20:47;;;;;;;6.82;2.63;;;;;;;;;;5111854;28;20052;-69
2022/04/05 11:23:15;;;;;;;10.48;4.25;;;;;;;;;;5092727;28;20793;-69
2022/04/05 11:25:43;;;;;;;7.40;3.92;;;;;;;;;;5091996;28;20036;-69
2022/04/05 11:28:19;;;;;;;7.22;3.60;;;;;;;;;;5111250;28;20027;-69
2022/04/05 11:33:52;;;;;;;8.50;4.40;;;;;;;;;;5113242;28;20031;-69
2022/04/05 11:36:21;;;;;;;4.68;1.83;;;;;;;;;;5111596;28;20016;-69
2022/04/05 11:39:17;;;;;;;6.43;3.95;;;;;;;;;;5094336;28;20042;-69
2022/04/05 11:41:43;;;;;;;7.20;3.17;;;;;;;;;;5091795;28;20059;-69
2022/04/05 11:44:14;;;;;;;7.32;3.80;;;;;;;;;;5092341;28;20026;-69
2022/04/05 11:46:40;;;;;;;4.32;2.83;;;;;;;;;;5092294;28;20036;-69
2022/04/05 11:49:07;;;;;;;7.85;4.38;;;;;;;;;;5110642;28;20024;-69
2022/04/05 11:51:37;;;;;;;5.97;2.50;;;;;;;;;;5096372;28;20064;-69
2022/04/05 11:54:16;;;;;;;9.80;4.32;;;;;;;;;;5112814;28;20019;-69
2022/04/05 11:56:42;;;;;;;5.90;2.53;;;;;;;;;;5092681;28;20032;-69
2022/04/05 11:59:09;;;;;;;1.98;0.93;;;;;;;;;;5093791;28;20403;-69
2022/04/05 12:01:37;;;;;;;4.38;2.67;;;;;;;;;;5075418;28;20385;-69
2022/04/05 12:04:10;;;;;;;11.55;4.18;;;;;;;;;;5094469;28;20020;-69
2022/04/05 12:06:39;;;;;;;8.48;4.10;;;;;;;;;;5094323;28;20063;-69
2022/04/05 12:09:12;;;;;;;2.65;1.48;;;;;;;;;;5094176;28;20024;-69
2022/04/05 12:11:41;;;;;;;2.50;1.10;;;;;;;;;;5074603;28;20027;-69
2022/04/05 12:14:11;;;;;;;5.88;3.47;;;;;;;;;;5076473;28;20106;-69
2022/04/05 12:16:45;;;;;;;8.57;3.45;;;;;;;;;;5093708;28;20020;-69
2022/04/05 12:19:11;;;;;;;9.90;4.93;;;;;;;;;;5076581;28;20028;-69
2022/04/05 12:21:40;;;;;;;7.68;4.50;;;;;;;;;;5093398;28;20114;-69
2022/04/05 12:24:06;;;;;;;1.13;1.05;;;;;;;;;;5092814;28;20048;-69
2022/04/05 12:26:32;;;;;;;9.57;4.32;;;;;;;;;;5093227;28;20500;-69
2022/04/05 12:28:59;;;;;;;2.05;1.65;;;;;;;;;;5093241;28;20040;-69
2022/04/05 12:31:29;;;;;;;8.40;3.95;;;;;;;;;;5075371;28;20036;-69
2022/04/05 12:34:16;;;;;;;7.90;4.43;;;;;;;;;;5075492;28;20032;-69
2022/04/05 12:36:43;;;;;;;6.28;3.45;;;;;;;;;;5094173;28;20024;-69
2022/04/05 12:39:20;;;;;;;6.45;3.97;;;;;;;;;;5094544;28;20523;-69
2022/04/05 12:41:50;;;;;;;6.63;3.47;;;;;;;;;;5075790;28;20031;-69
2022/04/05 12:44:40;;;;;;;8.07;4.50;;;;;;;;;;5052154;28;20029;-69
2022/04/05 12:47:25;;;;;;;9.20;3.55;;;;;;;;;;5034319;28;20299;-70
2022/04/05 12:49:52;;;;;;;9.45;5.03;;;;;;;;;;5034598;28;20123;-69
2022/04/05 12:52:25;;;;;;;7.22;3.95;;;;;;;;;;5032536;28;20021;-69
2022/04/05 12:54:55;;;;;;;8.82;4.30;;;;;;;;;;5033510;28;20041;-70
2022/04/05 12:57:38;;;;;;;13.68;3.67;;;;;;;;;;5049799;28;20036;-69
2022/04/05 13:00:14;;;;;;;7.55;3.88;;;;;;;;;;5050590;28;20064;-69
2022/04/05 13:02:43;;;;;;;11.05;4.93;;;;;;;;;;5051005;28;20441;-69
2022/04/05 13:07:56;;;;;;;4.32;3.30;;;;;;;;;;5050805;28;20098;-69
2022/04/05 13:10:52;;;;;;;9.93;3.75;;;;;;;;;;5051015;28;20462;-69
2022/04/05 13:13:47;;;;;;;5.70;3.17;;;;;;;;;;5016227;28;20140;-69
2022/04/05 13:16:15;;;;;;;6.15;3.55;;;;;;;;;;4984440;28;20026;-69
2022/04/05 13:18:42;;;;;;;4.32;2.17;;;;;;;;;;5009740;28;20069;-69
2022/04/05 13:21:09;;;;;;;2.72;1.98;;;;;;;;;;5010221;28;20534;-69
2022/04/05 13:23:37;;;;;;;7.97;3.95;;;;;;;;;;5009761;28;20029;-69
2022/04/05 13:26:05;;;;;;;2.28;1.58;;;;;;;;;;5010324;28;20057;-69
2022/04/05 13:28:35;;;;;;;8.10;4.80;;;;;;;;;;5009520;28;20109;-69
2022/04/05 13:31:08;;;;;;;8.10;4.05;;;;;;;;;;5010280;28;20062;-69
2022/04/05 13:33:35;;;;;;;8.38;4.72;;;;;;;;;;5008521;28;20029;-69
2022/04/05 13:36:01;;;;;;;2.60;1.52;;;;;;;;;;5009522;28;20026;-69
2022/04/05 13:38:27;;;;;;;6.47;4.63;;;;;;;;;;4992333;28;20041;-69
2022/04/05 13:40:54;;;;;;;4.78;2.88;;;;;;;;;;5008802;28;20125;-69
2022/04/05 13:43:21;;;;;;;8.70;5.43;;;;;;;;;;5006658;28;20523;-69
2022/04/05 13:45:48;;;;;;;7.32;3.78;;;;;;;;;;5007065;28;20045;-69
2022/04/05 13:48:14;;;;;;;10.07;6.13;;;;;;;;;;5007929;28;20026;-69
2022/04/05 13:50:40;;;;;;;10.88;4.88;;;;;;;;;;5008270;28;20022;-69
2022/04/05 13:53:06;;;;;;;8.82;4.82;;;;;;;;;;5053271;28;20044;-69
2022/04/05 13:55:32;;;;;;;11.50;5.72;;;;;;;;;;5090595;28;20020;-69
2022/04/05 13:57:58;;;;;;;18.13;5.78;;;;;;;;;;5090305;28;20040;-69
2022/04/05 14:00:24;;;;;;;1.27;0.65;;;;;;;;;;5091507;28;20043;-69
2022/04/05 14:02:52;;;;;;;9.77;4.90;;;;;;;;;;5072792;28;20020;-69
2022/04/05 14:05:18;;;;;;;10.73;4.95;;;;;;;;;;5091424;28;20054;-69
2022/04/05 14:07:44;;;;;;;15.82;6.13;;;;;;;;;;5071882;28;20090;-69
2022/04/05 14:10:13;;;;;;;8.43;4.07;;;;;;;;;;5073340;28;20591;-69
2022/04/05 14:12:39;;;;;;;8.10;4.85;;;;;;;;;;5085841;28;20075;-70
2022/04/05 14:15:05;;;;;;;12.25;4.68;;;;;;;;;;5072580;28;20024;-69
2022/04/05 14:17:31;;;;;;;13.13;5.68;;;;;;;;;;5090732;28;20472;-69
2022/04/05 14:19:57;;;;;;;9.98;4.70;;;;;;;;;;5090903;28;20024;-69
2022/04/05 14:22:23;;;;;;;4.38;2.60;;;;;;;;;;5090714;28;20051;-69
2022/04/05 14:24:49;;;;;;;4.40;3.08;;;;;;;;;;5073252;28;20024;-69
2022/04/05 14:27:15;;;;;;;8.60;4.60;;;;;;;;;;5090826;28;20046;-70
2022/04/05 14:29:42;;;;;;;4.75;1.55;;;;;;;;;;5090908;28;20062;-69
2022/04/05 14:32:10;;;;;;;0.73;0.70;;;;;;;;;;5091350;28;20093;-69
2022/04/05 14:34:36;;;;;;;9.38;4.30;;;;;;;;;;5101444;28;20506;-69
2022/04/05 14:37:02;;;;;;;5.97;3.25;;;;;;;;;;5111504;28;20034;-69
2022/04/05 14:39:29;;;;;;;2.28;1.30;;;;;;;;;;5110982;28;20033;-69
2022/04/05 14:41:55;;;;;;;3.53;2.17;;;;;;;;;;5110956;28;20027;-69
2022/04/05 14:44:21;;;;;;;7.03;4.05;;;;;;;;;;5090191;28;20024;-69
2022/04/05 14:46:47;;;;;;;8.20;4.28;;;;;;;;;;5078155;28;20032;-69
2022/04/05 14:49:16;;;;;;;8.48;4.28;;;;;;;;;;5052432;28;20024;-69
2022/04/05 14:51:43;;;;;;;7.80;3.15;;;;;;;;;;5069473;28;20076;-69
2022/04/05 14:54:09;;;;;;;6.93;3.60;;;;;;;;;;5070159;28;20095;-69
2022/04/05 14:56:35;;;;;;;11.73;5.57;;;;;;;;;;5051830;28;20038;-69
2022/04/05 14:59:01;;;;;;;6.43;3.83;;;;;;;;;;5066418;28;20101;-69
2022/04/05 15:01:27;;;;;;;10.05;3.72;;;;;;;;;;5090951;28;20032;-69
2022/04/05 15:03:53;;;;;;;15.30;4.88;;;;;;;;;;5072892;28;20035;-69
2022/04/05 15:06:19;;;;;;;8.30;4.65;;;;;;;;;;5072214;28;20031;-69
2022/04/05 15:08:45;;;;;;;8.05;4.32;;;;;;;;;;5090743;28;20497;-69
2022/04/05 15:11:11;;;;;;;6.07;3.60;;;;;;;;;;5090096;28;20024;-69
2022/04/05 15:13:37;;;;;;;9.82;3.97;;;;;;;;;;5088803;28;20032;-69
2022/04/05 15:16:03;;;;;;;7.85;4.00;;;;;;;;;;5089872;28;20020;-69
2022/04/05 15:18:29;;;;;;;7.80;2.70;;;;;;;;;;5090267;28;20024;-69
2022/04/05 15:20:56;;;;;;;8.40;3.92;;;;;;;;;;5090095;28;20039;-69
2022/04/05 15:23:25;;;;;;;1.55;1.13;;;;;;;;;;5089308;28;20036;-69
2022/04/05 15:25:51;;;;;;;7.70;4.03;;;;;;;;;;5071600;28;20020;-70
2022/04/05 15:28:18;;;;;;;8.80;4.35;;;;;;;;;;5092961;28;20024;-69
2022/04/05 15:30:44;;;;;;;5.30;3.35;;;;;;;;;;5094244;28;20028;-69
2022/04/05 15:33:10;;;;;;;5.32;3.05;;;;;;;;;;5075499;28;20024;-70
2022/04/05 15:35:36;;;;;;;5.93;3.75;;;;;;;;;;5075168;28;20119;-67
2022/04/05 15:38:03;;;;;;;6.50;3.95;;;;;;;;;;5093858;28;20024;-67
2022/04/05 15:40:30;;;;;;;6.80;4.63;;;;;;;;;;5094184;28;20024;-67
2022/04/05 15:42:57;;;;;;;9.63;4.47;;;;;;;;;;5093283;28;20032;-68
2022/04/05 15:45:23;;;;;;;4.57;2.72;;;;;;;;;;5094166;28;20024;-68
2022/04/05 15:47:49;;;;;;;8.23;3.88;;;;;;;;;;5094495;28;20028;-68
2022/04/05 15:53:19;;;;;;;8.05;3.53;;;;;;;;;;5095822;28;20598;-68
2022/04/05 15:55:45;;;;;;;7.28;3.33;;;;;;;;;;5093002;28;20036;-67
2022/04/05 15:58:11;;;;;;;6.43;4.05;;;;;;;;;;5073198;28;20032;-67
2022/04/05 16:00:38;;;;;;;7.78;4.30;;;;;;;;;;5092203;28;20050;-67
2022/04/05 16:03:04;;;;;;;7.85;3.60;;;;;;;;;;5092592;28;20055;-67
2022/04/05 16:05:30;;;;;;;9.43;3.70;;;;;;;;;;5093059;28;20028;-67
2022/04/05 16:07:56;;;;;;;6.38;3.75;;;;;;;;;;5074205;28;20032;-68
2022/04/05 16:10:22;;;;;;;4.93;3.72;;;;;;;;;;5075463;28;20107;-67
2022/04/05 16:12:48;;;;;;;7.57;4.43;;;;;;;;;;5093097;28;20388;-67
2022/04/05 16:15:14;;;;;;;11.73;3.50;;;;;;;;;;5075140;28;20457;-67
2022/04/05 16:17:40;;;;;;;3.83;2.33;;;;;;;;;;5093097;28;20020;-68
2022/04/05 16:20:08;;;;;;;5.85;3.75;;;;;;;;;;5091507;28;20047;-68
2022/04/05 16:28:48;;;;;;;8.38;3.60;;;;;;;;;;5093349;28;20854;-67
2022/04/05 16:31:14;;;;;;;8.63;3.83;;;;;;;;;;5073482;28;20084;-67
2022/04/05 16:33:40;;;;;;;9.05;3.95;;;;;;;;;;5092243;28;20028;-67
2022/04/05 16:36:14;;;;;;;5.93;4.00;;;;;;;;;;5092415;28;20024;-68
2022/04/05 16:38:40;;;;;;;6.70;3.63;;;;;;;;;;5073979;28;20381;-67
2022/04/05 16:41:06;;;;;;;7.65;3.85;;;;;;;;;;5093837;28;20020;-67
2022/04/05 16:43:32;;;;;;;8.20;4.00;;;;;;;;;;5094165;28;20359;-67
2022/04/05 16:45:58;;;;;;;5.57;3.42;;;;;;;;;;5075399;28;20024;-68
2022/04/05 16:48:24;;;;;;;6.10;3.88;;;;;;;;;;5092111;28;20487;-67
2022/04/05 16:50:50;;;;;;;4.40;2.88;;;;;;;;;;5074354;28;20307;-67
2022/04/05 16:53:16;;;;;;;5.63;3.22;;;;;;;;;;5074044;28;20031;-67
2022/04/05 16:55:44;;;;;;;6.65;3.72;;;;;;;;;;5092074;28;20032;-68
2022/04/05 16:58:13;;;;;;;8.35;3.95;;;;;;;;;;5073813;28;20111;-67
2022/04/05 17:00:39;;;;;;;5.32;4.03;;;;;;;;;;5092151;28;20032;-67